createdAt,value
2023-03-21T00:01:00.413Z,101000.40
2023-03-21T00:03:29.149Z,100997.04
2023-03-21T00:05:57.919Z,100992.44
2023-03-21T00:08:27.056Z,100991.91
2023-03-21T00:11:02.220Z,100991.73
2023-03-21T00:13:33.030Z,100993.14
2023-03-21T00:19:18.217Z,100984.67
2023-03-21T00:22:06.611Z,100971.75
2023-03-21T00:24:37.684Z,100969.80
2023-03-21T00:27:44.829Z,100966.27
2023-03-21T00:29:57.339Z,100971.92
2023-03-21T00:32:26.473Z,100969.98
2023-03-21T00:35:11.784Z,100965.35
2023-03-21T00:37:44.125Z,100966.58
2023-03-21T00:40:24.951Z,100965.34
2023-03-21T00:42:55.194Z,100964.78
2023-03-21T00:48:37.372Z,100962.80
2023-03-21T00:51:15.684Z,100965.14
2023-03-21T00:53:44.399Z,100964.96
2023-03-21T00:56:12.961Z,100967.27
2023-03-21T00:58:41.656Z,100964.77
2023-03-21T01:01:10.900Z,100965.32
2023-03-21T01:03:42.983Z,100958.41
2023-03-21T01:06:14.140Z,100957.17
2023-03-21T01:08:52.322Z,100948.66
2023-03-21T01:11:28.954Z,100948.69
2023-03-21T01:14:10.722Z,100949.74
2023-03-21T01:16:47.195Z,100948.31
2023-03-21T01:19:26.295Z,100947.97
2023-03-21T01:21:58.590Z,100945.84
2023-03-21T01:24:27.622Z,100946.73
2023-03-21T01:26:56.904Z,100945.67
2023-03-21T01:29:25.715Z,100946.00
2023-03-21T01:31:54.286Z,100948.48
2023-03-21T01:34:22.942Z,100956.80
2023-03-21T01:36:52.356Z,100955.75
2023-03-21T01:39:22.662Z,100951.85
2023-03-21T01:41:52.044Z,100950.97
2023-03-21T01:44:29.145Z,100942.66
2023-03-21T01:47:13.426Z,100942.48
2023-03-21T01:49:49.797Z,100937.35
2023-03-21T01:54:40.659Z,100933.09
2023-03-21T01:57:16.266Z,100926.91
2023-03-21T01:59:50.971Z,100923.55
2023-03-21T02:03:18.893Z,100922.31
2023-03-21T02:06:09.153Z,100927.83
2023-03-21T02:08:40.129Z,100928.87
2023-03-21T02:11:11.101Z,100926.40
2023-03-21T02:13:41.758Z,100922.68
2023-03-21T02:16:47.898Z,100925.84
2023-03-21T02:19:52.687Z,100928.15
2023-03-21T02:22:55.892Z,100930.79
2023-03-21T02:25:43.769Z,100932.03
2023-03-21T02:28:35.318Z,100929.91
2023-03-21T02:31:28.985Z,100932.18
2023-03-21T02:35:07.900Z,100935.18
2023-03-21T02:38:11.053Z,100932.89
2023-03-21T02:41:10.141Z,100934.14
2023-03-21T02:43:58.641Z,100930.77
2023-03-21T02:46:48.876Z,100924.17
2023-03-21T02:49:31.706Z,100920.96
2023-03-21T02:52:12.157Z,100918.30
2023-03-21T02:54:48.323Z,100911.05
2023-03-21T02:57:19.837Z,100910.88
2023-03-21T02:59:55.452Z,100910.53
2023-03-21T03:02:31.260Z,100909.83
2023-03-21T03:05:00.019Z,100907.16
2023-03-21T03:08:05.755Z,100902.06
2023-03-21T03:11:14.313Z,100903.61
2023-03-21T03:13:58.165Z,100900.73
2023-03-21T03:16:37.565Z,100892.05
2023-03-21T03:19:10.568Z,100887.13
2023-03-21T03:21:56.240Z,100887.15
2023-03-21T03:24:39.274Z,100890.00
2023-03-21T03:27:15.178Z,100892.05
2023-03-21T03:29:46.630Z,100890.96
2023-03-21T03:32:29.867Z,100888.57
2023-03-21T03:34:59.053Z,100882.05
2023-03-21T03:37:37.428Z,100880.61
2023-03-21T03:40:19.420Z,100887.00
2023-03-21T03:42:57.910Z,100895.65
2023-03-21T03:45:47.127Z,100897.10
2023-03-21T03:48:51.455Z,100897.11
2023-03-21T03:51:36.857Z,100897.27
2023-03-21T03:54:54.252Z,100890.94
2023-03-21T03:57:25.798Z,100889.52
2023-03-21T03:59:53.425Z,100884.92
2023-03-21T04:02:27.294Z,100888.65
2023-03-21T04:04:57.322Z,100888.84
2023-03-21T04:07:24.718Z,100884.25
2023-03-21T04:09:54.128Z,100883.02
2023-03-21T04:12:21.490Z,100883.22
2023-03-21T04:15:32.683Z,100883.58
2023-03-21T04:18:11.529Z,100886.77
2023-03-21T04:20:39.165Z,100889.45
2023-03-21T04:23:07.360Z,100893.52
2023-03-21T04:25:38.730Z,100900.60
2023-03-21T04:28:08.018Z,100904.85
2023-03-21T04:30:51.889Z,100900.61
2023-03-21T04:33:26.308Z,100900.44
2023-03-21T04:35:56.342Z,100900.27
2023-03-21T04:38:30.980Z,100899.20
2023-03-21T04:41:04.084Z,100902.90
2023-03-21T04:43:33.554Z,100903.24
2023-03-21T04:46:02.462Z,100897.23
2023-03-21T04:48:30.079Z,100901.11
2023-03-21T04:51:00.211Z,100903.92
2023-03-21T04:53:29.607Z,100903.39
2023-03-21T04:55:58.101Z,100904.44
2023-03-21T04:58:27.031Z,100904.41
2023-03-21T05:00:54.993Z,100902.65
2023-03-21T05:03:24.018Z,100899.11
2023-03-21T05:05:54.778Z,100895.58
2023-03-21T05:08:22.460Z,100891.14
2023-03-21T05:10:51.696Z,100895.75
2023-03-21T05:13:20.299Z,100899.27
2023-03-21T05:17:07.404Z,100895.90
2023-03-21T05:22:24.266Z,100895.34
2023-03-21T05:24:55.867Z,100893.55
2023-03-21T05:28:08.352Z,100890.51
2023-03-21T05:30:36.326Z,100891.87
2023-03-21T05:33:04.282Z,100897.68
2023-03-21T05:35:31.838Z,100896.79
2023-03-21T05:38:03.382Z,100891.13
2023-03-21T05:40:35.119Z,100902.61
2023-03-21T05:43:04.899Z,100902.73
2023-03-21T05:45:40.371Z,100898.30
2023-03-21T05:48:23.088Z,100899.66
2023-03-21T05:51:12.816Z,100900.21
2023-03-21T05:54:26.199Z,100901.20
2023-03-21T05:56:54.703Z,100901.56
2023-03-21T05:59:31.754Z,100900.64
2023-03-21T06:01:59.647Z,100900.98
2023-03-21T06:04:28.275Z,100900.59
2023-03-21T06:06:59.575Z,100899.33
2023-03-21T06:09:31.223Z,100900.05
2023-03-21T06:12:27.305Z,100899.48
2023-03-21T06:15:26.152Z,100900.94
2023-03-21T06:18:20.985Z,100901.05
2023-03-21T06:23:34.028Z,100905.46
2023-03-21T06:26:02.650Z,100902.33
2023-03-21T06:28:32.831Z,100900.67
2023-03-21T06:31:00.305Z,100899.11
2023-03-21T06:33:57.258Z,100899.76
2023-03-21T06:36:54.276Z,100893.70
2023-03-21T06:39:26.015Z,100900.20
2023-03-21T06:42:22.606Z,100899.95
2023-03-21T06:44:50.645Z,100896.58
2023-03-21T06:47:19.281Z,100899.52
2023-03-21T06:50:53.400Z,100898.50
2023-03-21T06:53:28.881Z,100898.83
2023-03-21T06:56:35.274Z,100898.73
2023-03-21T06:59:42.801Z,100905.09
2023-03-21T07:02:16.250Z,100906.13
2023-03-21T07:04:54.306Z,100905.48
2023-03-21T07:07:32.401Z,100902.67
2023-03-21T07:09:59.967Z,100901.33
2023-03-21T07:16:14.499Z,100896.23
2023-03-21T07:22:42.684Z,100891.56
2023-03-21T07:25:55.660Z,100888.95
2023-03-21T07:28:23.718Z,100889.17
2023-03-21T07:31:46.927Z,100886.15
2023-03-21T07:34:32.517Z,100884.95
2023-03-21T07:37:16.286Z,100889.33
2023-03-21T07:40:26.003Z,100888.15
2023-03-21T07:42:55.695Z,100886.79
2023-03-21T07:45:35.399Z,100884.71
2023-03-21T07:48:46.792Z,100887.06
2023-03-21T07:51:14.119Z,100887.05
2023-03-21T07:53:47.883Z,100883.33
2023-03-21T07:56:41.699Z,100883.52
2023-03-21T07:59:09.396Z,100881.01
2023-03-21T08:01:37.204Z,100885.32
2023-03-21T08:04:30.160Z,100881.98
2023-03-21T08:07:43.909Z,100882.94
2023-03-21T08:10:15.837Z,100883.17
2023-03-21T08:17:05.765Z,100879.08
2023-03-21T08:19:33.186Z,100884.25
2023-03-21T08:22:26.479Z,100885.80
2023-03-21T08:25:32.776Z,100886.61
2023-03-21T08:28:36.355Z,100882.34
2023-03-21T08:35:01.998Z,100887.95
2023-03-21T08:38:03.590Z,100881.78
2023-03-21T08:41:14.790Z,100882.50
2023-03-21T08:47:30.937Z,100884.10
2023-03-21T08:50:49.817Z,100883.04
2023-03-21T08:54:09.778Z,100877.60
2023-03-21T08:56:38.597Z,100878.06
2023-03-21T08:59:20.787Z,100874.64
2023-03-21T09:01:48.277Z,100876.58
2023-03-21T09:04:27.481Z,100873.84
2023-03-21T09:07:26.133Z,100875.34
2023-03-21T09:10:25.677Z,100871.38
2023-03-21T09:13:21.600Z,100867.09
2023-03-21T09:16:43.616Z,100870.84
2023-03-21T09:19:12.740Z,100863.14
2023-03-21T09:22:06.308Z,100863.23
2023-03-21T09:29:00.275Z,100861.91
2023-03-21T09:31:29.944Z,100861.20
2023-03-21T09:33:58.735Z,100858.20
2023-03-21T09:36:27.111Z,100858.30
2023-03-21T09:38:56.744Z,100857.20
2023-03-21T09:41:57.301Z,100855.77
2023-03-21T09:44:58.917Z,100851.06
2023-03-21T09:47:34.662Z,100853.61
2023-03-21T09:50:27.052Z,100854.29
2023-03-21T09:53:00.935Z,100854.48
2023-03-21T09:55:38.162Z,100851.95
2023-03-21T09:58:30.644Z,100849.25
2023-03-21T10:18:28.947Z,100835.04
2023-03-21T10:24:48.542Z,100837.84
2023-03-21T10:31:07.759Z,100839.13
2023-03-21T10:44:17.649Z,100830.95
2023-03-21T10:46:57.143Z,100826.09
2023-03-21T10:57:17.818Z,100821.25
2023-03-21T11:12:49.925Z,100809.84
2023-03-21T11:22:12.504Z,100802.50
2023-03-21T11:32:13.831Z,100792.91
2023-03-21T11:48:58.149Z,100773.92
2023-03-21T11:59:02.905Z,100768.59
2023-03-21T12:04:53.646Z,100762.78
2023-03-21T12:07:58.355Z,100762.79
2023-03-21T13:15:28.517Z,100691.64
2023-03-21T13:18:26.433Z,100688.43
2023-03-21T13:21:04.363Z,100687.27
2023-03-21T13:23:39.275Z,100686.61
2023-03-21T13:26:11.915Z,100683.81
2023-03-21T13:28:41.088Z,100677.83
2023-03-21T13:31:27.720Z,100675.44
2023-03-21T13:33:59.469Z,100672.58
2023-03-21T13:36:37.546Z,100668.48
2023-03-21T13:39:06.360Z,100666.15
2023-03-21T13:41:42.303Z,100666.08
2023-03-21T13:55:04.489Z,100653.55
2023-03-21T13:57:33.071Z,100652.04
2023-03-21T14:03:24.172Z,100650.08
2023-03-21T14:06:05.032Z,100647.67
2023-03-21T14:08:58.543Z,100641.36
2023-03-21T14:11:54.715Z,100639.87
2023-03-21T14:15:20.568Z,100639.78
2023-03-21T14:18:15.989Z,100642.56
2023-03-21T14:21:09.212Z,100640.85
2023-03-21T14:24:14.496Z,100636.17
2023-03-21T14:27:19.833Z,100639.64
2023-03-21T14:29:52.859Z,100638.66
2023-03-21T14:32:28.613Z,100638.23
2023-03-21T14:35:01.577Z,100641.48
2023-03-21T14:40:37.524Z,100640.83
2023-03-21T14:43:09.780Z,100639.91
2023-03-21T14:45:41.210Z,100641.08
2023-03-21T14:48:37.235Z,100638.52
2023-03-21T14:53:50.872Z,100642.01
2023-03-21T14:56:24.845Z,100643.73
2023-03-21T14:58:54.905Z,100642.75
2023-03-21T15:01:34.957Z,100644.31
2023-03-21T15:04:06.068Z,100644.15
2023-03-21T15:06:57.199Z,100642.64
2023-03-21T15:09:30.317Z,100640.58
2023-03-21T15:12:01.561Z,100639.98
2023-03-21T15:14:41.449Z,100641.23
2023-03-21T15:17:24.675Z,100641.81
2023-03-21T15:19:52.114Z,100643.20
2023-03-21T15:22:34.953Z,100647.15
2023-03-21T15:25:12.294Z,100646.91
2023-03-21T15:27:42.521Z,100646.10
2023-03-21T15:30:27.923Z,100648.52
2023-03-21T15:33:07.280Z,100651.17
2023-03-21T15:36:09.327Z,100650.27
2023-03-21T15:38:45.167Z,100653.52
2023-03-21T15:41:19.815Z,100654.37
2023-03-21T15:43:54.624Z,100657.17
2023-03-21T15:46:53.963Z,100658.38
2023-03-21T15:49:40.280Z,100662.20
2023-03-21T15:52:16.484Z,100656.84
2023-03-21T15:54:58.959Z,100662.95
2023-03-21T15:57:32.282Z,100659.55
2023-03-21T16:00:19.605Z,100661.21
2023-03-21T16:02:53.070Z,100661.21
2023-03-21T16:05:34.713Z,100660.77
2023-03-21T16:08:31.061Z,100661.73
2023-03-21T16:11:27.865Z,100662.25
2023-03-21T16:13:56.445Z,100666.45
2023-03-21T16:16:29.346Z,100666.24
2023-03-21T16:18:59.533Z,100668.90
2023-03-21T16:21:33.190Z,100670.92
2023-03-21T16:24:01.709Z,100668.75
2023-03-21T16:26:36.086Z,100675.48
2023-03-21T16:29:06.112Z,100676.95
2023-03-21T16:31:36.774Z,100677.67
2023-03-21T16:34:04.859Z,100681.84
2023-03-21T16:36:42.852Z,100679.21
2023-03-21T16:39:17.547Z,100680.40
2023-03-21T16:41:46.211Z,100686.83
2023-03-21T16:44:14.888Z,100687.06
2023-03-21T16:46:42.496Z,100694.36
2023-03-21T16:49:26.275Z,100691.19
2023-03-21T16:51:56.984Z,100695.41
2023-03-21T16:54:25.430Z,100697.41
2023-03-21T16:56:55.378Z,100697.77
2023-03-21T16:59:23.434Z,100696.65
2023-03-21T17:01:51.195Z,100697.23
2023-03-21T17:04:20.473Z,100698.94
2023-03-21T17:06:53.657Z,100702.27
2023-03-21T17:09:26.798Z,100702.61
2023-03-21T17:11:55.867Z,100704.88
2023-03-21T17:14:24.198Z,100706.56
2023-03-21T17:16:52.126Z,100706.49
2023-03-21T17:22:17.121Z,100716.03
2023-03-21T17:24:45.543Z,100717.27
2023-03-21T17:27:43.470Z,100716.86
2023-03-21T17:30:30.537Z,100712.73
2023-03-21T17:33:01.925Z,100719.92
2023-03-21T17:38:54.598Z,100726.69
2023-03-21T17:41:23.157Z,100734.48
2023-03-21T17:47:51.719Z,100747.71
2023-03-21T17:50:23.602Z,100747.05
2023-03-21T17:52:52.635Z,100747.35
2023-03-21T17:55:20.756Z,100751.54
2023-03-21T17:58:01.131Z,100753.00
2023-03-21T18:00:37.036Z,100761.98
2023-03-21T18:03:04.586Z,100760.98
2023-03-21T18:05:34.105Z,100765.64
2023-03-21T18:08:12.159Z,100763.05
2023-03-21T18:11:44.821Z,100770.27
2023-03-21T18:14:29.099Z,100782.11
2023-03-21T18:17:00.862Z,100780.09
2023-03-21T18:19:31.846Z,100781.30
2023-03-21T18:22:05.704Z,100788.98
2023-03-21T18:24:37.711Z,100791.92
2023-03-21T18:27:06.290Z,100789.92
2023-03-21T18:32:31.774Z,100793.14
2023-03-21T18:35:00.009Z,100795.38
2023-03-21T18:37:31.779Z,100800.38
2023-03-21T18:40:22.363Z,100799.61
2023-03-21T18:43:45.906Z,100797.29
2023-03-21T18:45:40.720Z,100804.89
2023-03-21T18:48:13.627Z,100803.15
2023-03-21T18:50:42.611Z,100808.23
2023-03-21T18:53:11.752Z,100807.27
2023-03-21T18:55:46.260Z,100803.46
2023-03-21T18:58:17.201Z,100802.17
2023-03-21T19:00:46.199Z,100804.89
2023-03-21T19:03:30.139Z,100808.09
2023-03-21T19:06:09.500Z,100806.36
2023-03-21T19:08:42.022Z,100803.90
2023-03-21T19:11:11.222Z,100803.76
2023-03-21T19:13:40.040Z,100805.91
2023-03-21T19:16:11.347Z,100813.34
2023-03-21T19:18:57.345Z,100818.31
2023-03-21T19:21:26.573Z,100822.56
2023-03-21T19:26:47.313Z,100829.20
2023-03-21T19:29:16.419Z,100830.11
2023-03-21T19:31:45.450Z,100838.84
2023-03-21T19:34:14.198Z,100841.70
2023-03-21T19:36:46.009Z,100839.98
2023-03-21T19:39:22.874Z,100850.23
2023-03-21T19:41:55.444Z,100850.96
2023-03-21T19:44:30.411Z,100855.84
2023-03-21T19:46:59.174Z,100851.72
2023-03-21T19:49:48.516Z,100853.41
2023-03-21T19:52:16.836Z,100849.85
2023-03-21T19:54:45.592Z,100857.80
2023-03-21T19:57:16.873Z,100857.63
2023-03-21T19:59:45.646Z,100856.98
2023-03-21T20:02:34.495Z,100858.95
2023-03-21T20:05:06.851Z,100863.04
2023-03-21T20:07:35.909Z,100865.02
2023-03-21T20:10:08.914Z,100868.79
2023-03-21T20:12:37.900Z,100866.27
2023-03-21T20:15:17.007Z,100869.51
2023-03-21T20:17:51.280Z,100865.36
2023-03-21T20:20:20.539Z,100867.89
2023-03-21T20:23:06.115Z,100865.34
2023-03-21T20:25:47.285Z,100867.98
2023-03-21T20:28:25.524Z,100866.98
2023-03-21T20:30:58.643Z,100870.21
2023-03-21T20:33:28.837Z,100868.45
2023-03-21T20:36:37.402Z,100867.83
2023-03-21T20:38:55.982Z,100870.54
2023-03-21T20:41:24.653Z,100865.92
2023-03-21T20:46:47.148Z,100869.98
2023-03-21T20:49:16.161Z,100867.94
2023-03-21T20:52:44.565Z,100865.91
2023-03-21T20:54:34.924Z,100863.70
2023-03-21T20:57:05.771Z,100860.51
2023-03-21T20:59:35.853Z,100857.64
2023-03-21T21:02:05.382Z,100860.11
2023-03-21T21:04:49.853Z,100865.11
2023-03-21T21:07:23.057Z,100865.27
2023-03-21T21:09:51.723Z,100862.42
2023-03-21T21:12:20.651Z,100870.10
2023-03-21T21:14:49.347Z,100868.84
2023-03-21T21:17:37.162Z,100874.61
2023-03-21T21:20:18.634Z,100875.91
2023-03-21T21:22:59.960Z,100879.80
2023-03-21T21:25:33.449Z,100883.67
2023-03-21T21:28:02.539Z,100883.62
2023-03-21T21:30:32.767Z,100884.43
2023-03-21T21:33:01.494Z,100886.30
2023-03-21T21:35:30.096Z,100891.07
2023-03-21T21:37:58.775Z,100893.95
2023-03-21T21:40:27.499Z,100894.42
2023-03-21T21:42:57.807Z,100897.66
2023-03-21T21:45:26.520Z,100898.82
2023-03-21T21:47:55.250Z,100905.16
2023-03-21T21:53:46.589Z,100901.52
2023-03-21T21:56:15.552Z,100904.61
2023-03-21T21:58:47.210Z,100908.48
2023-03-21T22:01:16.442Z,100908.56
2023-03-21T22:03:46.313Z,100911.08
2023-03-21T22:06:14.852Z,100907.98
2023-03-21T22:08:47.095Z,100908.19
2023-03-21T22:11:16.098Z,100907.02
2023-03-21T22:13:45.723Z,100908.29
2023-03-21T22:16:14.535Z,100906.45
2023-03-21T22:18:43.658Z,100909.88
2023-03-21T22:21:12.192Z,100906.72
2023-03-21T22:23:43.440Z,100909.25
2023-03-21T22:26:11.958Z,100908.33
2023-03-21T22:28:42.332Z,100912.14
2023-03-21T22:31:17.396Z,100907.73
2023-03-21T22:33:46.288Z,100909.59
2023-03-21T22:36:14.912Z,100909.38
2023-03-21T22:38:44.009Z,100908.90
2023-03-21T22:41:12.450Z,100914.11
2023-03-21T22:43:40.938Z,100916.43
2023-03-21T22:46:09.552Z,100919.42
2023-03-21T22:48:38.171Z,100919.95
2023-03-21T22:54:58.426Z,100920.86
2023-03-21T22:57:25.719Z,100922.53
2023-03-21T22:59:52.996Z,100923.45
2023-03-21T23:02:20.195Z,100928.09
2023-03-21T23:04:48.183Z,100925.91
2023-03-21T23:07:16.189Z,100926.31
2023-03-21T23:09:43.356Z,100927.77
2023-03-21T23:12:10.645Z,100927.77
2023-03-21T23:14:37.764Z,100925.64
2023-03-21T23:17:04.790Z,100922.11
2023-03-21T23:19:32.060Z,100918.92
2023-03-21T23:21:59.249Z,100914.08
2023-03-21T23:24:26.729Z,100916.23
2023-03-21T23:26:53.922Z,100911.60
2023-03-21T23:29:21.021Z,100913.48
2023-03-21T23:31:48.366Z,100909.96
2023-03-21T23:34:15.553Z,100913.33
2023-03-21T23:36:42.781Z,100913.53
2023-03-21T23:39:10.350Z,100912.21
2023-03-21T23:41:37.654Z,100913.02
2023-03-21T23:44:05.411Z,100917.96
2023-03-21T23:46:32.565Z,100917.79
2023-03-21T23:48:59.823Z,100916.69
2023-03-21T23:51:27.025Z,100914.04
2023-03-21T23:53:56.847Z,100911.05
2023-03-21T23:56:26.452Z,100906.44
2023-03-21T23:58:53.706Z,100912.44
